Terminal Aerodrome Forecast
Issued by NWS

Home | Current Version | Previous Version | Text Only | Print | Product List | Glossary On
Versions: 1 2 3 4 5 6 7 8 9 10 11 12 13 14 15 16
789
FTUS43 KLSX 170530
TAFUIN
TAF
KUIN 170530Z 1706/1806 20006KT P6SM OVC250
     FM171100 20007KT P6SM OVC110
     FM171400 21006KT P6SM -RA OVC060
     FM171700 20007KT P6SM OVC012
     FM180100 21006KT 6SM BR BKN020=

USA.gov is the U.S. government's official web portal to all federal, state and local government web resources and services.